Archival Weather

South Haven Area Rgnl

South Haven, Michigan (KLWA)

Report from: Tuesday, September 19, 2023 3:15 AM EDT
Current time: Monday, June 17, 2024 5:29 AM EDT

Current weather – Weather history – Daily summaries
Weather forecast

Temperature8.9°C (48.0°F)
Dew point8.1°C (46.6°F)
Winds Calm
Visibility10 mi. (16.1 km)
Clouds Scattered clouds 6,000 ft. (1,829 m)
Altimeter30.05 in.Hg (1018 mB)
Relative humidity95 %
Density altitude-725 ft. (-221 m)
Remarks Fully automated report
Automated weather observing station with precipitation discriminator
Flight conditions Visual Meteorological Conditions
Raw dataKLWA 190715Z AUTO 00000KT 10SM SCT060 09/08 A3005 RMK AO2 T00890081
An error has occurred. This application may no longer respond until reloaded. Reload 🗙